createdAt,value
2022-11-15T00:00:50.912Z,36.53
2022-11-15T00:03:23.294Z,37.90
2022-11-15T00:05:50.475Z,37.83
2022-11-15T00:08:17.440Z,35.07
2022-11-15T00:10:44.366Z,35.17
2022-11-15T00:13:13.486Z,36.37
2022-11-15T00:15:41.696Z,36.00
2022-11-15T00:18:13.685Z,32.80
2022-11-15T00:20:40.334Z,41.40
2022-11-15T00:23:07.503Z,36.47
2022-11-15T00:25:34.160Z,39.17
2022-11-15T00:28:01.344Z,42.57
2022-11-15T00:30:28.882Z,35.23
2022-11-15T00:32:55.711Z,41.00
2022-11-15T00:35:22.387Z,41.10
2022-11-15T00:37:48.965Z,35.93
2022-11-15T00:40:15.788Z,40.57
2022-11-15T00:42:42.737Z,37.37
2022-11-15T00:45:10.084Z,39.40
2022-11-15T00:47:36.462Z,39.47
2022-11-15T00:50:03.052Z,33.60
2022-11-15T00:52:29.375Z,40.77
2022-11-15T00:54:55.732Z,36.83
2022-11-15T00:57:22.067Z,36.30
2022-11-15T00:59:48.828Z,38.07
2022-11-15T01:02:15.164Z,33.27
2022-11-15T01:04:41.816Z,34.27
2022-11-15T01:07:08.298Z,38.20
2022-11-15T01:09:34.672Z,36.93
2022-11-15T01:12:01.110Z,33.43
2022-11-15T01:14:27.505Z,35.73
2022-11-15T01:16:53.854Z,37.80
2022-11-15T01:19:20.234Z,36.47
2022-11-15T01:21:46.602Z,38.80
2022-11-15T01:24:14.044Z,31.90
2022-11-15T01:26:40.509Z,31.70
2022-11-15T01:29:06.931Z,34.73
2022-11-15T01:31:33.267Z,40.03
2022-11-15T01:33:59.647Z,33.33
2022-11-15T01:36:26.042Z,37.07
2022-11-15T01:38:58.250Z,30.47
2022-11-15T01:41:34.400Z,32.23
2022-11-15T01:44:40.361Z,31.50
2022-11-15T01:47:32.055Z,29.60
2022-11-15T01:50:13.236Z,30.43
2022-11-15T01:52:41.336Z,34.60
2022-11-15T01:55:19.998Z,38.17
2022-11-15T01:57:49.944Z,38.97
2022-11-15T02:00:16.818Z,33.63
2022-11-15T02:02:43.922Z,33.17
2022-11-15T02:05:10.890Z,33.13
2022-11-15T02:07:37.471Z,28.30
2022-11-15T02:10:13.684Z,30.80
2022-11-15T02:12:40.578Z,31.60
2022-11-15T02:15:09.089Z,33.70
2022-11-15T02:17:52.867Z,38.33
2022-11-15T02:20:42.119Z,34.77
2022-11-15T02:23:33.922Z,30.60
2022-11-15T02:26:41.813Z,26.63
2022-11-15T02:29:12.644Z,31.00
2022-11-15T02:32:16.523Z,26.93
2022-11-15T02:34:55.835Z,32.10
2022-11-15T02:37:35.696Z,29.90
2022-11-15T02:40:18.124Z,29.53
2022-11-15T02:43:10.394Z,27.37
2022-11-15T02:45:40.974Z,25.37
2022-11-15T02:48:09.024Z,23.83
2022-11-15T02:50:35.717Z,25.73
2022-11-15T02:53:02.936Z,22.83
2022-11-15T02:55:30.590Z,22.27
2022-11-15T02:58:09.029Z,21.63
2022-11-15T03:00:39.884Z,24.83
2022-11-15T03:03:38.138Z,21.13
2022-11-15T03:06:23.051Z,24.73
2022-11-15T03:09:10.512Z,24.60
2022-11-15T03:11:42.111Z,23.87
2022-11-15T03:14:08.853Z,24.30
2022-11-15T03:16:45.753Z,28.23
2022-11-15T03:19:35.326Z,26.13
2022-11-15T03:22:06.447Z,28.03
2022-11-15T03:24:38.087Z,26.77
2022-11-15T03:27:07.829Z,28.23
2022-11-15T03:29:42.891Z,26.37
2022-11-15T03:32:19.709Z,33.40
2022-11-15T03:34:54.101Z,24.37
2022-11-15T03:37:25.375Z,23.90
2022-11-15T03:39:51.947Z,30.67
2022-11-15T03:42:45.908Z,21.50
2022-11-15T03:45:24.250Z,23.53
2022-11-15T03:47:59.620Z,22.60
2022-11-15T03:50:27.007Z,22.73
2022-11-15T03:52:55.217Z,22.60
2022-11-15T03:55:22.196Z,23.87
2022-11-15T03:57:52.129Z,23.53
2022-11-15T04:00:18.694Z,23.13
2022-11-15T04:02:45.386Z,20.40
2022-11-15T04:05:11.750Z,22.97
2022-11-15T04:07:38.159Z,23.30
2022-11-15T04:10:05.123Z,22.10
2022-11-15T04:12:33.274Z,22.57
2022-11-15T04:15:10.357Z,19.67
2022-11-15T04:17:50.670Z,21.50
2022-11-15T04:20:45.179Z,19.70
2022-11-15T04:23:34.280Z,22.00
2022-11-15T04:26:06.725Z,21.23
2022-11-15T04:28:33.083Z,23.93
2022-11-15T04:30:59.507Z,22.53
2022-11-15T04:33:26.383Z,22.03
2022-11-15T04:36:11.241Z,21.70
2022-11-15T04:38:38.259Z,21.70
2022-11-15T04:41:04.820Z,19.03
2022-11-15T04:43:31.570Z,24.03
2022-11-15T04:45:58.291Z,23.40
2022-11-15T04:48:24.653Z,22.03
2022-11-15T04:50:51.000Z,19.30
2022-11-15T04:53:17.378Z,19.93
2022-11-15T04:55:47.389Z,19.57
2022-11-15T04:58:14.331Z,23.20
2022-11-15T05:00:40.893Z,23.57
2022-11-15T05:03:26.027Z,18.70
2022-11-15T05:05:52.440Z,17.20
2022-11-15T05:08:18.805Z,17.20
2022-11-15T05:10:45.507Z,22.53
2022-11-15T05:13:12.259Z,19.00
2022-11-15T05:15:38.617Z,14.77
2022-11-15T05:18:05.113Z,17.37
2022-11-15T05:20:31.465Z,16.97
2022-11-15T05:22:58.257Z,18.90
2022-11-15T05:25:25.196Z,19.70
2022-11-15T05:27:51.822Z,16.80
2022-11-15T05:30:18.244Z,16.97
2022-11-15T05:32:45.337Z,17.37
2022-11-15T05:35:19.763Z,16.70
2022-11-15T05:37:46.092Z,17.93
2022-11-15T05:40:12.481Z,25.67
2022-11-15T05:42:38.916Z,19.90
2022-11-15T05:45:07.288Z,24.97
2022-11-15T05:47:36.363Z,20.40
2022-11-15T05:50:02.905Z,19.10
2022-11-15T05:52:35.604Z,20.97
2022-11-15T05:55:03.841Z,22.13
2022-11-15T05:57:30.239Z,22.93
2022-11-15T05:59:57.135Z,22.27
2022-11-15T06:02:23.579Z,20.57
2022-11-15T06:04:49.967Z,19.27
2022-11-15T06:07:16.460Z,20.07
2022-11-15T06:09:43.256Z,23.27
2022-11-15T06:12:09.576Z,20.90
2022-11-15T06:14:35.945Z,17.17
2022-11-15T06:17:07.244Z,22.93
2022-11-15T06:19:36.496Z,21.97
2022-11-15T06:22:02.981Z,23.50
2022-11-15T06:24:29.349Z,21.10
2022-11-15T06:26:55.702Z,23.20
2022-11-15T06:29:22.068Z,20.63
2022-11-15T06:31:48.400Z,21.17
2022-11-15T06:34:14.782Z,19.90
2022-11-15T06:36:41.113Z,21.50
2022-11-15T06:39:07.498Z,18.70
2022-11-15T06:41:37.066Z,18.80
2022-11-15T06:44:04.269Z,21.97
2022-11-15T06:46:30.617Z,19.23
2022-11-15T06:48:56.999Z,21.80
2022-11-15T06:51:23.344Z,18.23
2022-11-15T06:53:49.868Z,19.30
2022-11-15T06:56:16.239Z,17.43
2022-11-15T06:58:42.614Z,20.70
2022-11-15T07:01:11.376Z,20.33
2022-11-15T07:03:41.595Z,19.73
2022-11-15T07:06:09.426Z,23.97
2022-11-15T07:08:36.267Z,20.87
2022-11-15T07:11:05.083Z,23.07
2022-11-15T07:13:36.666Z,19.50
2022-11-15T07:16:05.488Z,19.43
2022-11-15T07:18:34.306Z,17.70
2022-11-15T07:21:09.403Z,19.93
2022-11-15T07:23:40.119Z,18.47
2022-11-15T07:26:07.845Z,18.47
2022-11-15T07:28:34.707Z,20.60
2022-11-15T07:31:09.393Z,21.00
2022-11-15T07:33:36.872Z,21.80
2022-11-15T07:36:05.699Z,18.50
2022-11-15T07:38:34.166Z,22.20
2022-11-15T07:41:05.077Z,21.23
2022-11-15T07:43:33.814Z,18.40
2022-11-15T07:46:05.878Z,20.53
2022-11-15T07:48:43.237Z,17.43
2022-11-15T07:51:15.277Z,22.07
2022-11-15T07:53:43.074Z,17.67
2022-11-15T07:56:10.250Z,18.43
2022-11-15T07:58:36.665Z,16.00
2022-11-15T08:01:05.104Z,17.00
2022-11-15T08:03:31.764Z,22.93
2022-11-15T08:05:58.567Z,14.53
2022-11-15T08:08:24.945Z,18.93
2022-11-15T08:10:51.700Z,18.17
2022-11-15T08:13:18.309Z,20.53
2022-11-15T08:15:45.204Z,18.80
2022-11-15T08:18:14.547Z,18.60
2022-11-15T08:20:41.867Z,19.20
2022-11-15T08:23:09.181Z,17.37
2022-11-15T08:25:36.640Z,19.07
2022-11-15T08:28:06.046Z,19.00
2022-11-15T08:30:37.308Z,16.53
2022-11-15T08:33:03.816Z,16.93
2022-11-15T08:35:30.211Z,17.37
2022-11-15T08:37:56.530Z,18.20
2022-11-15T08:40:23.692Z,17.57
2022-11-15T08:42:50.191Z,19.63
2022-11-15T08:45:16.576Z,19.27
2022-11-15T08:47:42.902Z,16.63
2022-11-15T08:50:09.760Z,22.43
2022-11-15T08:52:36.128Z,17.43
2022-11-15T08:55:02.497Z,18.97
2022-11-15T08:57:32.020Z,21.30
2022-11-15T08:59:58.944Z,17.37
2022-11-15T09:02:25.334Z,18.03
2022-11-15T09:04:51.744Z,16.40
2022-11-15T09:07:18.696Z,17.13
2022-11-15T09:09:45.157Z,17.40
2022-11-15T09:12:11.728Z,19.70
2022-11-15T09:14:38.107Z,22.33
2022-11-15T09:17:04.479Z,18.10
2022-11-15T09:19:30.812Z,16.50
2022-11-15T09:21:57.600Z,12.90
2022-11-15T09:24:23.965Z,17.20
2022-11-15T09:26:52.186Z,15.87
2022-11-15T09:29:19.317Z,18.73
2022-11-15T09:31:46.144Z,15.23
2022-11-15T09:34:12.865Z,17.10
2022-11-15T09:36:39.388Z,13.37
2022-11-15T09:39:05.718Z,13.10
2022-11-15T09:42:00.034Z,14.77
2022-11-15T09:44:47.423Z,12.27
2022-11-15T09:47:50.545Z,14.33
2022-11-15T09:50:36.398Z,15.00
2022-11-15T09:53:02.949Z,13.90
2022-11-15T09:55:51.519Z,13.50
2022-11-15T09:58:34.144Z,14.30
2022-11-15T10:01:07.748Z,19.40
2022-11-15T10:03:42.718Z,17.60
2022-11-15T10:06:22.779Z,18.73
2022-11-15T10:08:57.563Z,18.00
2022-11-15T10:11:42.715Z,13.60
2022-11-15T10:14:16.271Z,16.93
2022-11-15T10:16:56.700Z,17.53
2022-11-15T10:19:46.468Z,22.00
2022-11-15T10:22:30.890Z,20.10
2022-11-15T10:25:09.517Z,17.67
2022-11-15T10:27:36.858Z,14.27
2022-11-15T10:30:15.012Z,18.93
2022-11-15T10:32:43.991Z,13.17
2022-11-15T10:35:19.465Z,15.73
2022-11-15T10:37:45.806Z,16.07
2022-11-15T10:40:20.062Z,16.40
2022-11-15T10:42:46.787Z,19.43
2022-11-15T10:45:33.908Z,17.13
2022-11-15T10:48:12.464Z,14.90
2022-11-15T10:50:44.269Z,13.87
2022-11-15T10:53:23.716Z,18.30
2022-11-15T10:55:53.352Z,16.53
2022-11-15T10:58:32.895Z,18.10
2022-11-15T11:01:11.104Z,20.00
2022-11-15T11:03:40.050Z,17.57
2022-11-15T11:06:10.872Z,19.77
2022-11-15T11:08:37.658Z,15.13
2022-11-15T11:11:06.136Z,17.80
2022-11-15T11:13:40.838Z,14.80
2022-11-15T11:16:22.728Z,14.97
2022-11-15T11:19:33.785Z,15.03
2022-11-15T11:22:18.695Z,14.87
2022-11-15T11:24:55.774Z,12.27
2022-11-15T11:27:44.539Z,17.93
2022-11-15T11:30:17.704Z,19.23
2022-11-15T11:33:09.371Z,15.47
2022-11-15T11:35:55.122Z,12.30
2022-11-15T11:38:45.839Z,14.13
2022-11-15T11:41:51.284Z,14.43
2022-11-15T11:44:47.855Z,20.17
2022-11-15T11:47:25.727Z,11.07
2022-11-15T11:50:00.115Z,12.50
2022-11-15T11:52:36.132Z,11.13
2022-11-15T11:55:24.133Z,10.03
2022-11-15T11:58:12.319Z,14.07
2022-11-15T12:00:44.495Z,10.30
2022-11-15T12:03:27.084Z,12.00
2022-11-15T12:06:10.528Z,12.97
2022-11-15T12:08:46.739Z,11.43
2022-11-15T12:11:23.362Z,15.30
2022-11-15T12:13:55.601Z,13.00
2022-11-15T12:16:29.061Z,15.73
2022-11-15T12:18:59.923Z,18.30
2022-11-15T12:21:44.995Z,13.37
2022-11-15T12:24:32.971Z,14.47
2022-11-15T12:27:28.207Z,13.37
2022-11-15T12:29:59.166Z,13.53
2022-11-15T12:32:30.326Z,14.27
2022-11-15T12:34:58.577Z,18.03
2022-11-15T12:37:48.408Z,12.60
2022-11-15T12:40:22.924Z,18.40
2022-11-15T12:43:15.451Z,14.67
2022-11-15T12:45:46.693Z,14.27
2022-11-15T12:48:19.073Z,17.07
2022-11-15T12:50:51.694Z,16.33
2022-11-15T12:53:27.691Z,17.13
2022-11-15T12:56:13.458Z,14.13
2022-11-15T12:58:49.689Z,12.30
2022-11-15T13:01:34.332Z,23.40
2022-11-15T13:04:19.645Z,11.93
2022-11-15T13:06:58.424Z,13.30
2022-11-15T13:09:37.046Z,13.23
2022-11-15T13:12:15.401Z,14.27
2022-11-15T13:14:44.171Z,14.03
2022-11-15T13:17:19.967Z,11.03
2022-11-15T13:19:59.716Z,12.57
2022-11-15T13:22:46.295Z,11.20
2022-11-15T13:25:21.785Z,10.73
2022-11-15T13:27:51.998Z,11.37
2022-11-15T13:30:30.148Z,11.57
2022-11-15T13:32:59.604Z,10.93
2022-11-15T13:35:28.268Z,11.97
2022-11-15T13:37:56.399Z,9.00
2022-11-15T13:40:35.114Z,13.23
2022-11-15T13:43:23.958Z,12.73
2022-11-15T13:46:06.274Z,12.30
2022-11-15T13:48:34.789Z,12.80
2022-11-15T13:51:05.949Z,16.83
2022-11-15T13:53:39.273Z,13.60
2022-11-15T13:56:06.670Z,11.63
2022-11-15T13:58:34.190Z,13.37
2022-11-15T14:01:03.796Z,11.57
2022-11-15T14:03:38.762Z,10.50
2022-11-15T14:06:21.364Z,9.90
2022-11-15T14:09:30.005Z,12.37
2022-11-15T14:11:57.647Z,13.03
2022-11-15T14:14:26.455Z,14.73
2022-11-15T14:16:56.081Z,11.93
2022-11-15T14:19:22.356Z,12.87
2022-11-15T14:22:12.530Z,10.70
2022-11-15T14:24:39.615Z,15.00
2022-11-15T14:27:28.106Z,11.93
2022-11-15T14:29:54.814Z,14.80
2022-11-15T14:32:30.125Z,13.73
2022-11-15T14:35:02.041Z,12.73
2022-11-15T14:37:34.372Z,15.07
2022-11-15T14:40:03.801Z,10.50
2022-11-15T14:42:30.186Z,11.73
2022-11-15T14:44:56.759Z,11.87
2022-11-15T14:47:23.198Z,14.17
2022-11-15T14:49:49.608Z,11.67
2022-11-15T14:52:31.795Z,16.93
2022-11-15T14:55:00.224Z,12.83
2022-11-15T14:57:26.681Z,9.87
2022-11-15T14:59:53.131Z,10.97
2022-11-15T15:02:25.121Z,13.13
2022-11-15T15:04:52.180Z,13.03
2022-11-15T15:07:18.813Z,14.17
2022-11-15T15:09:46.477Z,12.80
2022-11-15T15:12:18.836Z,11.37
2022-11-15T15:14:47.425Z,12.90
2022-11-15T15:17:14.071Z,12.50
2022-11-15T15:19:40.549Z,11.40
2022-11-15T15:22:07.214Z,11.37
2022-11-15T15:24:33.683Z,15.80
2022-11-15T15:27:00.055Z,12.13
2022-11-15T15:29:26.402Z,12.67
2022-11-15T15:31:52.788Z,10.33
2022-11-15T15:34:19.123Z,13.80
2022-11-15T15:36:45.547Z,13.20
2022-11-15T15:39:12.822Z,12.90
2022-11-15T15:41:39.576Z,11.00
2022-11-15T15:44:05.900Z,9.80
2022-11-15T15:46:32.267Z,12.77
2022-11-15T15:48:58.605Z,12.73
2022-11-15T15:51:24.991Z,14.93
2022-11-15T15:53:53.585Z,15.50
2022-11-15T15:56:19.976Z,16.73
2022-11-15T15:58:46.302Z,10.73
2022-11-15T16:01:12.832Z,10.90
2022-11-15T16:03:39.320Z,15.10
2022-11-15T16:06:06.487Z,14.10
2022-11-15T16:08:47.571Z,16.83
2022-11-15T16:11:14.387Z,15.10
2022-11-15T16:13:40.740Z,15.50
2022-11-15T16:16:13.782Z,11.07
2022-11-15T16:18:40.110Z,11.50
2022-11-15T16:21:06.555Z,11.33
2022-11-15T16:23:32.927Z,13.80
2022-11-15T16:25:59.597Z,11.13
2022-11-15T16:28:31.369Z,13.60
2022-11-15T16:31:09.226Z,13.20
2022-11-15T16:33:36.308Z,13.40
2022-11-15T16:36:03.682Z,11.13
2022-11-15T16:38:30.613Z,12.23
2022-11-15T16:40:57.340Z,12.80
2022-11-15T16:43:23.783Z,12.40
2022-11-15T16:45:53.234Z,9.97
2022-11-15T16:48:28.650Z,12.23
2022-11-15T16:50:57.337Z,18.97
2022-11-15T16:53:24.127Z,11.97
2022-11-15T16:55:50.469Z,9.70
2022-11-15T16:58:16.852Z,13.27
2022-11-15T17:00:43.220Z,12.13
2022-11-15T17:03:09.637Z,11.80
2022-11-15T17:05:35.980Z,11.67
2022-11-15T17:08:02.357Z,13.77
2022-11-15T17:10:28.755Z,10.53
2022-11-15T17:12:55.926Z,12.43
2022-11-15T17:15:24.403Z,13.27
2022-11-15T17:17:53.075Z,11.80
2022-11-15T17:20:22.186Z,10.27
2022-11-15T17:22:48.895Z,11.17
2022-11-15T17:25:15.361Z,11.30
2022-11-15T17:27:41.728Z,11.33
2022-11-15T17:30:10.183Z,11.27
2022-11-15T17:32:37.523Z,11.13
2022-11-15T17:35:12.002Z,10.77
2022-11-15T17:37:40.318Z,9.20
2022-11-15T17:40:07.399Z,11.43
2022-11-15T17:42:33.837Z,11.47
2022-11-15T17:45:01.928Z,12.20
2022-11-15T17:47:31.607Z,9.40
2022-11-15T17:49:57.947Z,11.07
2022-11-15T17:52:24.335Z,11.07
2022-11-15T17:54:50.658Z,11.87
2022-11-15T17:57:17.289Z,11.90
2022-11-15T17:59:43.618Z,13.40
2022-11-15T18:02:10.132Z,9.70
2022-11-15T18:04:36.446Z,13.03
2022-11-15T18:07:02.828Z,11.93
2022-11-15T18:09:29.497Z,10.10
2022-11-15T18:11:55.868Z,12.73
2022-11-15T18:14:22.287Z,11.80
2022-11-15T18:16:48.653Z,11.57
2022-11-15T18:19:15.133Z,12.87
2022-11-15T18:21:59.116Z,10.00
2022-11-15T18:24:36.655Z,12.03
2022-11-15T18:27:05.421Z,13.43
2022-11-15T18:29:33.255Z,9.03
2022-11-15T18:32:00.690Z,14.43
2022-11-15T18:34:33.571Z,8.63
2022-11-15T18:37:02.586Z,15.37
2022-11-15T18:39:29.222Z,8.77
2022-11-15T18:41:55.907Z,14.23
2022-11-15T18:44:22.644Z,9.40
2022-11-15T18:46:50.891Z,14.10
2022-11-15T18:49:17.852Z,13.90
2022-11-15T18:51:44.368Z,10.73
2022-11-15T18:54:13.141Z,9.60
2022-11-15T18:56:41.482Z,10.17
2022-11-15T18:59:08.783Z,10.37
2022-11-15T19:01:40.035Z,12.13
2022-11-15T19:04:15.753Z,12.10
2022-11-15T19:06:43.723Z,13.30
2022-11-15T19:09:13.914Z,12.20
2022-11-15T19:11:40.403Z,11.10
2022-11-15T19:14:08.758Z,13.03
2022-11-15T19:16:44.742Z,12.80
2022-11-15T19:19:16.081Z,14.30
2022-11-15T19:21:43.041Z,20.83
2022-11-15T19:24:10.505Z,14.60
2022-11-15T19:26:37.824Z,10.00
2022-11-15T19:29:05.725Z,11.87
2022-11-15T19:31:32.761Z,12.50
2022-11-15T19:34:00.825Z,12.40
2022-11-15T19:36:31.892Z,13.83
2022-11-15T19:39:00.525Z,14.40
2022-11-15T19:41:26.981Z,10.40
2022-11-15T19:43:53.558Z,13.70
2022-11-15T19:46:23.430Z,11.47
2022-11-15T19:48:51.441Z,15.03
2022-11-15T19:51:21.543Z,18.43
2022-11-15T19:53:49.219Z,12.53
2022-11-15T19:56:17.594Z,16.03
2022-11-15T19:58:44.736Z,14.83
2022-11-15T20:01:21.733Z,12.07
2022-11-15T20:03:50.081Z,17.00
2022-11-15T20:06:18.635Z,14.40
2022-11-15T20:08:46.914Z,12.70
2022-11-15T20:11:14.494Z,11.07
2022-11-15T20:13:42.210Z,16.10
2022-11-15T20:16:10.643Z,16.43
2022-11-15T20:18:37.236Z,11.93
2022-11-15T20:21:06.226Z,16.47
2022-11-15T20:23:33.268Z,15.20
2022-11-15T20:25:59.612Z,11.87
2022-11-15T20:28:27.705Z,11.20
2022-11-15T20:30:56.601Z,11.97
2022-11-15T20:33:23.679Z,16.07
2022-11-15T20:35:50.249Z,15.33
2022-11-15T20:38:17.415Z,13.50
2022-11-15T20:40:48.367Z,14.47
2022-11-15T20:43:16.561Z,14.70
2022-11-15T20:45:44.562Z,17.27
2022-11-15T20:48:14.032Z,12.73
2022-11-15T20:50:43.277Z,16.10
2022-11-15T20:53:12.361Z,15.60
2022-11-15T20:55:40.893Z,20.30
2022-11-15T20:58:07.730Z,15.70
2022-11-15T21:00:34.108Z,17.60
2022-11-15T21:03:00.473Z,15.00
2022-11-15T21:05:26.981Z,15.13
2022-11-15T21:07:53.398Z,16.90
2022-11-15T21:10:38.407Z,16.17
2022-11-15T21:13:04.772Z,15.10
2022-11-15T21:15:33.412Z,13.30
2022-11-15T21:17:59.936Z,18.37
2022-11-15T21:20:26.839Z,15.80
2022-11-15T21:22:53.267Z,14.93
2022-11-15T21:25:19.619Z,15.13
2022-11-15T21:27:45.991Z,16.67
2022-11-15T21:30:12.627Z,14.20
2022-11-15T21:32:39.134Z,19.03
2022-11-15T21:35:06.045Z,18.30
2022-11-15T21:37:32.395Z,13.37
2022-11-15T21:39:58.762Z,15.90
2022-11-15T21:42:25.104Z,15.60
2022-11-15T21:44:51.876Z,15.50
2022-11-15T21:47:18.214Z,14.77
2022-11-15T21:49:44.624Z,18.00
2022-11-15T21:52:11.014Z,16.30
2022-11-15T21:54:39.472Z,16.67
2022-11-15T21:57:05.807Z,20.13
2022-11-15T21:59:32.244Z,20.00
2022-11-15T22:02:17.048Z,19.40
2022-11-15T22:04:43.410Z,19.00
2022-11-15T22:07:09.782Z,18.67
2022-11-15T22:09:36.810Z,20.07
2022-11-15T22:12:03.315Z,21.17
2022-11-15T22:14:29.679Z,17.70
2022-11-15T22:16:56.005Z,18.53
2022-11-15T22:19:22.583Z,18.93
2022-11-15T22:21:48.898Z,17.77
2022-11-15T22:24:15.269Z,29.03
2022-11-15T22:26:41.627Z,22.73
2022-11-15T22:29:08.440Z,20.83
2022-11-15T22:31:34.886Z,15.57
2022-11-15T22:34:01.315Z,20.00
2022-11-15T22:36:38.671Z,17.83
2022-11-15T22:39:13.579Z,17.67
2022-11-15T22:41:39.911Z,20.80
2022-11-15T22:44:06.432Z,16.53
2022-11-15T22:46:32.785Z,16.43
2022-11-15T22:49:03.206Z,16.73
2022-11-15T22:51:29.903Z,18.00
2022-11-15T22:53:56.271Z,20.20
2022-11-15T22:56:22.663Z,17.37
2022-11-15T22:58:49.033Z,19.17
2022-11-15T23:01:20.751Z,15.73
2022-11-15T23:03:47.473Z,18.00
2022-11-15T23:06:13.916Z,17.33
2022-11-15T23:08:40.594Z,16.90
2022-11-15T23:11:28.884Z,19.07
2022-11-15T23:13:55.619Z,22.00
2022-11-15T23:16:23.298Z,20.27
2022-11-15T23:18:54.444Z,17.97
2022-11-15T23:21:43.017Z,21.73
2022-11-15T23:24:11.785Z,21.10
2022-11-15T23:26:38.548Z,17.90
2022-11-15T23:29:06.239Z,22.17
2022-11-15T23:32:01.136Z,18.87
2022-11-15T23:34:29.220Z,18.37
2022-11-15T23:36:55.607Z,24.20
2022-11-15T23:39:22.362Z,20.00
2022-11-15T23:41:48.750Z,19.97
2022-11-15T23:44:15.650Z,19.87
2022-11-15T23:46:42.048Z,19.80
2022-11-15T23:49:08.561Z,21.17
2022-11-15T23:51:34.898Z,22.30
2022-11-15T23:54:01.277Z,18.53
2022-11-15T23:56:27.847Z,22.83
2022-11-15T23:58:54.215Z,24.00
